sensor_id;sensor_type;location;lat;lon;timestamp;pressure;altitude;pressure_sealevel;temperature;humidity
67740;BME280;54536;50.090;14.420;2024-02-04T00:01:46;99843.44;;;11.11;64.48
67740;BME280;54536;50.090;14.420;2024-02-04T00:04:12;99848.09;;;11.18;64.66
67740;BME280;54536;50.090;14.420;2024-02-04T00:06:38;99844.53;;;11.08;65.10
67740;BME280;54536;50.090;14.420;2024-02-04T00:09:04;99855.66;;;11.12;64.77
67740;BME280;54536;50.090;14.420;2024-02-04T00:11:30;99862.13;;;11.08;65.28
67740;BME280;54536;50.090;14.420;2024-02-04T00:13:56;99869.66;;;11.12;65.10
67740;BME280;54536;50.090;14.420;2024-02-04T00:16:22;99857.13;;;11.05;65.49
67740;BME280;54536;50.090;14.420;2024-02-04T00:18:49;99868.88;;;11.00;65.59
67740;BME280;54536;50.090;14.420;2024-02-04T00:21:15;99868.38;;;11.07;65.43
67740;BME280;54536;50.090;14.420;2024-02-04T00:23:41;99864.00;;;10.96;65.73
67740;BME280;54536;50.090;14.420;2024-02-04T00:26:07;99869.19;;;11.07;65.47
67740;BME280;54536;50.090;14.420;2024-02-04T00:28:33;99867.78;;;11.03;65.26
67740;BME280;54536;50.090;14.420;2024-02-04T00:30:59;99861.81;;;11.01;65.33
67740;BME280;54536;50.090;14.420;2024-02-04T00:33:25;99854.31;;;10.96;65.70
67740;BME280;54536;50.090;14.420;2024-02-04T00:35:51;99867.66;;;11.05;65.45
67740;BME280;54536;50.090;14.420;2024-02-04T00:38:17;99862.88;;;10.98;65.63
67740;BME280;54536;50.090;14.420;2024-02-04T00:40:43;99860.88;;;11.02;65.81
67740;BME280;54536;50.090;14.420;2024-02-04T00:43:09;99848.53;;;11.02;65.62
67740;BME280;54536;50.090;14.420;2024-02-04T00:45:36;99840.63;;;11.02;65.77
67740;BME280;54536;50.090;14.420;2024-02-04T00:48:02;99844.44;;;11.10;65.75
67740;BME280;54536;50.090;14.420;2024-02-04T00:50:28;99847.81;;;11.00;65.41
67740;BME280;54536;50.090;14.420;2024-02-04T00:52:54;99849.28;;;10.93;65.97
67740;BME280;54536;50.090;14.420;2024-02-04T00:55:20;99856.28;;;11.04;65.65
67740;BME280;54536;50.090;14.420;2024-02-04T00:57:46;99857.44;;;11.11;65.39
67740;BME280;54536;50.090;14.420;2024-02-04T01:00:13;99855.00;;;11.19;64.94
67740;BME280;54536;50.090;14.420;2024-02-04T01:02:39;99852.31;;;11.10;65.02
67740;BME280;54536;50.090;14.420;2024-02-04T01:05:06;99859.75;;;11.05;65.38
67740;BME280;54536;50.090;14.420;2024-02-04T01:07:32;99858.72;;;11.17;65.01
67740;BME280;54536;50.090;14.420;2024-02-04T01:09:58;99852.63;;;11.16;65.12
67740;BME280;54536;50.090;14.420;2024-02-04T01:12:24;99846.66;;;10.93;65.71
67740;BME280;54536;50.090;14.420;2024-02-04T01:14:50;99853.28;;;11.09;65.67
67740;BME280;54536;50.090;14.420;2024-02-04T01:17:16;99842.81;;;10.97;66.26
67740;BME280;54536;50.090;14.420;2024-02-04T01:19:42;99862.06;;;10.98;66.27
67740;BME280;54536;50.090;14.420;2024-02-04T01:22:08;99855.06;;;11.08;65.91
67740;BME280;54536;50.090;14.420;2024-02-04T01:24:35;99852.69;;;11.05;66.23
67740;BME280;54536;50.090;14.420;2024-02-04T01:27:00;99855.47;;;11.04;66.32
67740;BME280;54536;50.090;14.420;2024-02-04T01:29:27;99848.06;;;10.97;66.48
67740;BME280;54536;50.090;14.420;2024-02-04T01:31:52;99857.13;;;11.05;66.71
67740;BME280;54536;50.090;14.420;2024-02-04T01:34:19;99849.81;;;11.08;66.90
67740;BME280;54536;50.090;14.420;2024-02-04T01:36:44;99847.25;;;10.97;67.41
67740;BME280;54536;50.090;14.420;2024-02-04T01:39:10;99843.63;;;10.98;67.92
67740;BME280;54536;50.090;14.420;2024-02-04T01:41:36;99838.78;;;10.93;68.32
67740;BME280;54536;50.090;14.420;2024-02-04T01:44:03;99849.28;;;10.93;68.57
67740;BME280;54536;50.090;14.420;2024-02-04T01:46:29;99835.06;;;10.96;68.33
67740;BME280;54536;50.090;14.420;2024-02-04T01:48:56;99827.41;;;10.93;68.46
67740;BME280;54536;50.090;14.420;2024-02-04T01:51:22;99834.09;;;10.97;69.00
67740;BME280;54536;50.090;14.420;2024-02-04T01:53:50;99834.47;;;10.92;69.07
67740;BME280;54536;50.090;14.420;2024-02-04T01:56:15;99833.88;;;10.89;68.74
67740;BME280;54536;50.090;14.420;2024-02-04T01:58:43;99832.94;;;10.90;68.47
67740;BME280;54536;50.090;14.420;2024-02-04T02:01:13;99832.19;;;10.99;68.69
67740;BME280;54536;50.090;14.420;2024-02-04T02:03:40;99837.13;;;10.92;68.70
67740;BME280;54536;50.090;14.420;2024-02-04T02:06:06;99828.44;;;11.01;68.53
67740;BME280;54536;50.090;14.420;2024-02-04T02:08:32;99823.25;;;10.90;68.50
67740;BME280;54536;50.090;14.420;2024-02-04T02:11:32;99811.56;;;10.83;68.98
67740;BME280;54536;50.090;14.420;2024-02-04T02:14:06;99821.00;;;10.86;68.50
67740;BME280;54536;50.090;14.420;2024-02-04T02:16:36;99814.88;;;10.85;68.30
67740;BME280;54536;50.090;14.420;2024-02-04T02:22:20;99816.00;;;10.83;68.36
67740;BME280;54536;50.090;14.420;2024-02-04T02:24:51;99808.94;;;10.83;68.56
67740;BME280;54536;50.090;14.420;2024-02-04T02:27:17;99815.84;;;10.84;68.31
67740;BME280;54536;50.090;14.420;2024-02-04T02:29:43;99812.38;;;10.84;67.71
67740;BME280;54536;50.090;14.420;2024-02-04T02:32:10;99818.31;;;10.76;68.19
67740;BME280;54536;50.090;14.420;2024-02-04T02:34:36;99814.94;;;10.74;67.64
67740;BME280;54536;50.090;14.420;2024-02-04T02:37:27;99823.88;;;10.83;67.70
67740;BME280;54536;50.090;14.420;2024-02-04T02:40:07;99813.16;;;10.74;68.20
67740;BME280;54536;50.090;14.420;2024-02-04T02:42:36;99812.25;;;10.85;67.45
67740;BME280;54536;50.090;14.420;2024-02-04T02:45:05;99822.00;;;10.73;67.94
67740;BME280;54536;50.090;14.420;2024-02-04T02:47:33;99803.53;;;10.85;67.79
67740;BME280;54536;50.090;14.420;2024-02-04T02:50:00;99811.41;;;10.85;67.32
67740;BME280;54536;50.090;14.420;2024-02-04T02:52:27;99804.44;;;10.74;67.86
67740;BME280;54536;50.090;14.420;2024-02-04T02:54:53;99795.44;;;10.76;67.80
67740;BME280;54536;50.090;14.420;2024-02-04T02:57:18;99798.41;;;10.83;67.37
67740;BME280;54536;50.090;14.420;2024-02-04T02:59:45;99805.78;;;10.89;67.09
67740;BME280;54536;50.090;14.420;2024-02-04T03:02:10;99808.50;;;10.99;67.12
67740;BME280;54536;50.090;14.420;2024-02-04T03:04:37;99804.09;;;10.88;66.92
67740;BME280;54536;50.090;14.420;2024-02-04T03:07:03;99799.25;;;10.84;67.07
67740;BME280;54536;50.090;14.420;2024-02-04T03:09:30;99803.34;;;10.97;66.47
67740;BME280;54536;50.090;14.420;2024-02-04T03:11:56;99804.44;;;10.95;66.96
67740;BME280;54536;50.090;14.420;2024-02-04T03:14:22;99800.31;;;10.81;67.05
67740;BME280;54536;50.090;14.420;2024-02-04T03:16:48;99800.81;;;10.75;67.33
67740;BME280;54536;50.090;14.420;2024-02-04T03:19:14;99800.91;;;10.85;66.73
67740;BME280;54536;50.090;14.420;2024-02-04T03:21:40;99808.69;;;10.86;67.41
67740;BME280;54536;50.090;14.420;2024-02-04T03:24:06;99805.22;;;10.86;66.92
67740;BME280;54536;50.090;14.420;2024-02-04T03:26:31;99809.28;;;10.78;67.21
67740;BME280;54536;50.090;14.420;2024-02-04T03:28:58;99807.16;;;10.72;67.22
67740;BME280;54536;50.090;14.420;2024-02-04T03:31:24;99802.63;;;10.74;67.65
67740;BME280;54536;50.090;14.420;2024-02-04T03:33:50;99815.03;;;10.84;67.14
67740;BME280;54536;50.090;14.420;2024-02-04T03:36:22;99810.16;;;10.79;67.47
67740;BME280;54536;50.090;14.420;2024-02-04T03:38:53;99815.25;;;10.60;68.08
67740;BME280;54536;50.090;14.420;2024-02-04T03:41:19;99819.41;;;10.62;67.84
67740;BME280;54536;50.090;14.420;2024-02-04T03:43:45;99818.91;;;10.68;67.91
67740;BME280;54536;50.090;14.420;2024-02-04T03:46:16;99823.72;;;10.63;67.74
67740;BME280;54536;50.090;14.420;2024-02-04T03:48:43;99823.59;;;10.65;67.45
67740;BME280;54536;50.090;14.420;2024-02-04T03:51:15;99814.88;;;10.64;67.38
67740;BME280;54536;50.090;14.420;2024-02-04T03:53:42;99823.00;;;10.61;67.91
67740;BME280;54536;50.090;14.420;2024-02-04T03:56:08;99829.56;;;10.67;67.31
67740;BME280;54536;50.090;14.420;2024-02-04T03:58:34;99827.78;;;10.67;67.45
67740;BME280;54536;50.090;14.420;2024-02-04T04:01:00;99824.72;;;10.83;66.87
67740;BME280;54536;50.090;14.420;2024-02-04T04:03:26;99834.09;;;10.76;67.28
67740;BME280;54536;50.090;14.420;2024-02-04T04:05:55;99833.53;;;10.82;66.92
67740;BME280;54536;50.090;14.420;2024-02-04T04:08:21;99833.88;;;10.68;67.48
67740;BME280;54536;50.090;14.420;2024-02-04T04:10:47;99834.78;;;10.78;67.54
67740;BME280;54536;50.090;14.420;2024-02-04T04:13:13;99832.47;;;10.85;66.92
67740;BME280;54536;50.090;14.420;2024-02-04T04:15:40;99822.09;;;10.83;66.93
67740;BME280;54536;50.090;14.420;2024-02-04T04:18:08;99807.25;;;10.82;67.20
67740;BME280;54536;50.090;14.420;2024-02-04T04:20:36;99800.47;;;10.80;66.96
67740;BME280;54536;50.090;14.420;2024-02-04T04:23:02;99805.22;;;10.86;66.60
67740;BME280;54536;50.090;14.420;2024-02-04T04:25:28;99790.50;;;10.83;67.01
67740;BME280;54536;50.090;14.420;2024-02-04T04:27:54;99795.94;;;10.91;66.93
67740;BME280;54536;50.090;14.420;2024-02-04T04:30:22;99784.03;;;10.87;66.68
67740;BME280;54536;50.090;14.420;2024-02-04T04:32:48;99789.69;;;10.83;67.03
67740;BME280;54536;50.090;14.420;2024-02-04T04:35:13;99798.97;;;10.87;66.56
67740;BME280;54536;50.090;14.420;2024-02-04T04:37:40;99783.84;;;10.79;67.02
67740;BME280;54536;50.090;14.420;2024-02-04T04:40:06;99783.38;;;10.74;67.50
67740;BME280;54536;50.090;14.420;2024-02-04T04:42:33;99780.50;;;10.77;67.36
67740;BME280;54536;50.090;14.420;2024-02-04T04:44:58;99766.56;;;10.65;67.52
67740;BME280;54536;50.090;14.420;2024-02-04T04:47:25;99775.03;;;10.69;67.50
67740;BME280;54536;50.090;14.420;2024-02-04T04:49:50;99756.75;;;10.67;66.95
67740;BME280;54536;50.090;14.420;2024-02-04T04:52:17;99768.88;;;10.59;67.82
67740;BME280;54536;50.090;14.420;2024-02-04T04:54:42;99769.69;;;10.59;68.08
67740;BME280;54536;50.090;14.420;2024-02-04T04:57:09;99758.25;;;10.60;67.87
67740;BME280;54536;50.090;14.420;2024-02-04T04:59:34;99748.97;;;10.66;67.45
67740;BME280;54536;50.090;14.420;2024-02-04T05:02:01;99745.53;;;10.65;67.91
67740;BME280;54536;50.090;14.420;2024-02-04T05:04:27;99735.59;;;10.69;67.61
67740;BME280;54536;50.090;14.420;2024-02-04T05:06:53;99737.97;;;10.72;67.19
67740;BME280;54536;50.090;14.420;2024-02-04T05:09:19;99752.22;;;10.69;67.39
67740;BME280;54536;50.090;14.420;2024-02-04T05:11:45;99753.88;;;10.70;67.25
67740;BME280;54536;50.090;14.420;2024-02-04T05:14:11;99759.66;;;10.64;67.34
67740;BME280;54536;50.090;14.420;2024-02-04T05:16:37;99763.09;;;10.65;67.08
67740;BME280;54536;50.090;14.420;2024-02-04T05:19:03;99761.19;;;10.67;66.80
67740;BME280;54536;50.090;14.420;2024-02-04T05:21:29;99760.88;;;10.60;67.50
67740;BME280;54536;50.090;14.420;2024-02-04T05:23:55;99754.63;;;10.61;67.36
67740;BME280;54536;50.090;14.420;2024-02-04T05:26:21;99773.88;;;10.62;66.69
67740;BME280;54536;50.090;14.420;2024-02-04T05:28:47;99762.28;;;10.64;67.02
67740;BME280;54536;50.090;14.420;2024-02-04T05:31:13;99770.63;;;10.69;66.62
67740;BME280;54536;50.090;14.420;2024-02-04T05:33:39;99767.22;;;10.78;66.18
67740;BME280;54536;50.090;14.420;2024-02-04T05:36:05;99759.72;;;10.74;66.38
67740;BME280;54536;50.090;14.420;2024-02-04T05:38:31;99756.25;;;10.73;65.91
67740;BME280;54536;50.090;14.420;2024-02-04T05:40:57;99764.56;;;10.78;65.97
67740;BME280;54536;50.090;14.420;2024-02-04T05:43:23;99758.38;;;10.80;66.25
67740;BME280;54536;50.090;14.420;2024-02-04T05:45:49;99748.69;;;10.80;65.89
67740;BME280;54536;50.090;14.420;2024-02-04T05:48:15;99754.53;;;10.84;65.84
67740;BME280;54536;50.090;14.420;2024-02-04T05:50:41;99763.16;;;10.74;66.31
67740;BME280;54536;50.090;14.420;2024-02-04T05:53:07;99755.03;;;10.77;66.23
67740;BME280;54536;50.090;14.420;2024-02-04T05:55:33;99748.03;;;10.88;65.75
67740;BME280;54536;50.090;14.420;2024-02-04T05:57:59;99739.06;;;10.90;65.36
67740;BME280;54536;50.090;14.420;2024-02-04T06:00:26;99731.59;;;10.95;65.26
67740;BME280;54536;50.090;14.420;2024-02-04T06:02:52;99741.72;;;11.00;65.10
67740;BME280;54536;50.090;14.420;2024-02-04T06:05:18;99744.22;;;11.01;65.15
67740;BME280;54536;50.090;14.420;2024-02-04T06:07:44;99733.59;;;11.03;64.75
67740;BME280;54536;50.090;14.420;2024-02-04T06:10:10;99730.22;;;11.01;65.04
67740;BME280;54536;50.090;14.420;2024-02-04T06:12:37;99725.81;;;11.01;64.47
67740;BME280;54536;50.090;14.420;2024-02-04T06:15:04;99732.19;;;10.99;64.89
67740;BME280;54536;50.090;14.420;2024-02-04T06:17:31;99737.03;;;11.04;64.28
67740;BME280;54536;50.090;14.420;2024-02-04T06:19:57;99726.56;;;11.13;64.32
67740;BME280;54536;50.090;14.420;2024-02-04T06:22:25;99729.03;;;11.15;64.23
67740;BME280;54536;50.090;14.420;2024-02-04T06:24:51;99730.16;;;11.12;64.36
67740;BME280;54536;50.090;14.420;2024-02-04T06:27:17;99725.59;;;11.14;64.30
67740;BME280;54536;50.090;14.420;2024-02-04T06:29:43;99730.28;;;11.11;64.51
67740;BME280;54536;50.090;14.420;2024-02-04T06:32:09;99723.31;;;11.00;64.67
67740;BME280;54536;50.090;14.420;2024-02-04T06:34:35;99727.00;;;11.18;64.36
67740;BME280;54536;50.090;14.420;2024-02-04T06:37:02;99730.59;;;11.17;64.47
67740;BME280;54536;50.090;14.420;2024-02-04T06:39:28;99723.16;;;11.22;64.06
67740;BME280;54536;50.090;14.420;2024-02-04T06:41:54;99732.69;;;11.23;64.00
67740;BME280;54536;50.090;14.420;2024-02-04T06:44:20;99728.00;;;11.27;64.21
67740;BME280;54536;50.090;14.420;2024-02-04T06:46:46;99725.94;;;11.31;63.78
67740;BME280;54536;50.090;14.420;2024-02-04T06:49:13;99730.91;;;11.24;63.62
67740;BME280;54536;50.090;14.420;2024-02-04T06:51:44;99724.56;;;11.36;64.10
67740;BME280;54536;50.090;14.420;2024-02-04T06:54:11;99728.72;;;11.29;63.49
67740;BME280;54536;50.090;14.420;2024-02-04T06:56:37;99729.28;;;11.33;63.62
67740;BME280;54536;50.090;14.420;2024-02-04T06:59:03;99737.75;;;11.36;63.78
67740;BME280;54536;50.090;14.420;2024-02-04T07:01:29;99717.25;;;11.40;63.42
67740;BME280;54536;50.090;14.420;2024-02-04T07:03:55;99725.41;;;11.37;63.36
67740;BME280;54536;50.090;14.420;2024-02-04T07:06:21;99725.41;;;11.37;63.48
67740;BME280;54536;50.090;14.420;2024-02-04T07:08:47;99709.06;;;11.43;63.20
67740;BME280;54536;50.090;14.420;2024-02-04T07:11:13;99713.91;;;11.38;63.19
67740;BME280;54536;50.090;14.420;2024-02-04T07:13:38;99714.31;;;11.33;63.35
67740;BME280;54536;50.090;14.420;2024-02-04T07:16:05;99719.16;;;11.38;63.00
67740;BME280;54536;50.090;14.420;2024-02-04T07:18:30;99728.56;;;11.31;63.37
67740;BME280;54536;50.090;14.420;2024-02-04T07:20:57;99710.88;;;11.42;63.25
67740;BME280;54536;50.090;14.420;2024-02-04T07:23:23;99718.50;;;11.45;63.13
67740;BME280;54536;50.090;14.420;2024-02-04T07:25:49;99713.50;;;11.42;63.11
67740;BME280;54536;50.090;14.420;2024-02-04T07:28:14;99711.59;;;11.54;62.99
67740;BME280;54536;50.090;14.420;2024-02-04T07:30:41;99716.03;;;11.54;63.22
67740;BME280;54536;50.090;14.420;2024-02-04T07:33:06;99723.38;;;11.50;62.88
67740;BME280;54536;50.090;14.420;2024-02-04T07:35:33;99733.91;;;11.50;62.49
67740;BME280;54536;50.090;14.420;2024-02-04T07:37:59;99722.69;;;11.48;62.81
67740;BME280;54536;50.090;14.420;2024-02-04T07:40:26;99721.84;;;11.57;62.61
67740;BME280;54536;50.090;14.420;2024-02-04T07:42:54;99721.88;;;11.67;62.32
67740;BME280;54536;50.090;14.420;2024-02-04T07:45:20;99732.53;;;11.56;62.66
67740;BME280;54536;50.090;14.420;2024-02-04T07:47:46;99712.75;;;11.61;62.17
67740;BME280;54536;50.090;14.420;2024-02-04T07:50:12;99714.81;;;11.58;62.33
67740;BME280;54536;50.090;14.420;2024-02-04T07:52:38;99722.03;;;11.65;63.64
67740;BME280;54536;50.090;14.420;2024-02-04T07:55:04;99721.34;;;11.73;63.55
67740;BME280;54536;50.090;14.420;2024-02-04T07:57:30;99711.91;;;11.61;63.11
67740;BME280;54536;50.090;14.420;2024-02-04T07:59:56;99705.22;;;11.57;63.42
67740;BME280;54536;50.090;14.420;2024-02-04T08:02:21;99698.44;;;11.64;62.41
67740;BME280;54536;50.090;14.420;2024-02-04T08:04:48;99699.97;;;11.66;62.55
67740;BME280;54536;50.090;14.420;2024-02-04T08:07:13;99709.56;;;11.67;62.84
67740;BME280;54536;50.090;14.420;2024-02-04T08:09:40;99709.59;;;11.77;62.27
67740;BME280;54536;50.090;14.420;2024-02-04T08:12:06;99704.59;;;11.84;63.26
67740;BME280;54536;50.090;14.420;2024-02-04T08:14:32;99710.47;;;11.87;61.92
67740;BME280;54536;50.090;14.420;2024-02-04T08:16:58;99715.03;;;11.85;61.89
67740;BME280;54536;50.090;14.420;2024-02-04T08:19:25;99719.47;;;11.85;61.88
67740;BME280;54536;50.090;14.420;2024-02-04T08:21:50;99732.66;;;11.94;61.91
67740;BME280;54536;50.090;14.420;2024-02-04T08:24:17;99723.94;;;11.94;61.73
67740;BME280;54536;50.090;14.420;2024-02-04T08:26:42;99731.28;;;11.90;62.21
67740;BME280;54536;50.090;14.420;2024-02-04T08:29:09;99718.38;;;11.97;61.54
67740;BME280;54536;50.090;14.420;2024-02-04T08:31:35;99717.41;;;11.88;61.75
67740;BME280;54536;50.090;14.420;2024-02-04T08:34:01;99726.13;;;11.89;61.73
67740;BME280;54536;50.090;14.420;2024-02-04T08:36:29;99719.00;;;11.80;61.89
67740;BME280;54536;50.090;14.420;2024-02-04T08:38:56;99719.75;;;11.91;61.81
67740;BME280;54536;50.090;14.420;2024-02-04T08:41:22;99724.88;;;11.93;61.70
67740;BME280;54536;50.090;14.420;2024-02-04T08:43:48;99711.13;;;11.89;61.83
67740;BME280;54536;50.090;14.420;2024-02-04T08:46:14;99719.31;;;11.86;62.01
67740;BME280;54536;50.090;14.420;2024-02-04T08:48:41;99710.59;;;11.86;61.94
67740;BME280;54536;50.090;14.420;2024-02-04T08:51:12;99703.13;;;11.91;62.18
67740;BME280;54536;50.090;14.420;2024-02-04T08:53:42;99712.13;;;11.88;61.63
67740;BME280;54536;50.090;14.420;2024-02-04T08:56:08;99706.31;;;11.94;61.75
67740;BME280;54536;50.090;14.420;2024-02-04T08:58:35;99708.53;;;11.99;61.54
67740;BME280;54536;50.090;14.420;2024-02-04T09:01:05;99729.34;;;12.02;61.00
67740;BME280;54536;50.090;14.420;2024-02-04T09:03:32;99722.78;;;11.97;61.10
67740;BME280;54536;50.090;14.420;2024-02-04T09:05:58;99724.47;;;11.98;61.17
67740;BME280;54536;50.090;14.420;2024-02-04T09:08:24;99725.03;;;12.11;60.56
67740;BME280;54536;50.090;14.420;2024-02-04T09:10:50;99716.16;;;12.12;60.79
67740;BME280;54536;50.090;14.420;2024-02-04T09:13:16;99712.00;;;12.19;60.83
67740;BME280;54536;50.090;14.420;2024-02-04T09:15:42;99713.69;;;12.20;60.72
67740;BME280;54536;50.090;14.420;2024-02-04T09:18:09;99709.22;;;12.21;60.93
67740;BME280;54536;50.090;14.420;2024-02-04T09:20:34;99718.78;;;12.22;60.61
67740;BME280;54536;50.090;14.420;2024-02-04T09:23:00;99717.69;;;12.24;60.40
67740;BME280;54536;50.090;14.420;2024-02-04T09:25:26;99720.59;;;12.21;60.58
67740;BME280;54536;50.090;14.420;2024-02-04T09:27:52;99706.72;;;12.19;60.83
67740;BME280;54536;50.090;14.420;2024-02-04T09:30:18;99713.13;;;12.26;60.51
67740;BME280;54536;50.090;14.420;2024-02-04T09:32:44;99707.69;;;12.18;60.36
67740;BME280;54536;50.090;14.420;2024-02-04T09:35:10;99722.25;;;12.22;60.31
67740;BME280;54536;50.090;14.420;2024-02-04T09:37:36;99727.69;;;12.21;60.76
67740;BME280;54536;50.090;14.420;2024-02-04T09:40:02;99724.91;;;12.22;60.38
67740;BME280;54536;50.090;14.420;2024-02-04T09:42:30;99726.69;;;12.12;60.76
67740;BME280;54536;50.090;14.420;2024-02-04T09:44:57;99717.16;;;12.21;60.53
67740;BME280;54536;50.090;14.420;2024-02-04T09:47:23;99712.00;;;12.29;60.06
67740;BME280;54536;50.090;14.420;2024-02-04T09:49:49;99739.47;;;12.36;60.10
67740;BME280;54536;50.090;14.420;2024-02-04T09:52:19;99730.31;;;12.30;60.18
67740;BME280;54536;50.090;14.420;2024-02-04T09:54:57;99720.72;;;12.39;59.77
67740;BME280;54536;50.090;14.420;2024-02-04T09:57:25;99714.50;;;12.40;59.72
67740;BME280;54536;50.090;14.420;2024-02-04T09:59:51;99717.81;;;12.42;59.92
67740;BME280;54536;50.090;14.420;2024-02-04T10:02:17;99730.06;;;12.43;59.75
67740;BME280;54536;50.090;14.420;2024-02-04T10:04:44;99696.41;;;12.55;59.56
67740;BME280;54536;50.090;14.420;2024-02-04T10:07:10;99698.22;;;12.54;58.98
67740;BME280;54536;50.090;14.420;2024-02-04T10:09:36;99689.31;;;12.65;58.74
67740;BME280;54536;50.090;14.420;2024-02-04T10:12:02;99687.09;;;12.70;58.88
67740;BME280;54536;50.090;14.420;2024-02-04T10:14:30;99691.94;;;12.75;58.40
67740;BME280;54536;50.090;14.420;2024-02-04T10:16:56;99681.91;;;12.78;58.65
67740;BME280;54536;50.090;14.420;2024-02-04T10:19:25;99679.97;;;12.80;58.26
67740;BME280;54536;50.090;14.420;2024-02-04T10:22:02;99687.38;;;12.67;58.61
67740;BME280;54536;50.090;14.420;2024-02-04T10:24:28;99700.00;;;12.73;58.35
67740;BME280;54536;50.090;14.420;2024-02-04T10:26:56;99686.41;;;12.68;58.41
67740;BME280;54536;50.090;14.420;2024-02-04T10:29:24;99687.09;;;12.70;58.68
67740;BME280;54536;50.090;14.420;2024-02-04T10:31:54;99681.13;;;12.58;58.64
67740;BME280;54536;50.090;14.420;2024-02-04T10:34:20;99681.00;;;12.70;58.44
67740;BME280;54536;50.090;14.420;2024-02-04T10:36:47;99681.78;;;12.80;58.46
67740;BME280;54536;50.090;14.420;2024-02-04T10:39:13;99672.66;;;12.64;58.48
67740;BME280;54536;50.090;14.420;2024-02-04T10:41:53;99673.47;;;12.75;58.39
67740;BME280;54536;50.090;14.420;2024-02-04T10:44:23;99658.88;;;12.80;58.62
67740;BME280;54536;50.090;14.420;2024-02-04T10:46:51;99664.16;;;12.80;58.34
67740;BME280;54536;50.090;14.420;2024-02-04T10:49:19;99661.63;;;12.88;58.65
67740;BME280;54536;50.090;14.420;2024-02-04T10:51:46;99664.03;;;12.82;57.91
67740;BME280;54536;50.090;14.420;2024-02-04T10:54:15;99661.97;;;12.76;58.23
67740;BME280;54536;50.090;14.420;2024-02-04T10:56:44;99666.91;;;12.88;58.51
67740;BME280;54536;50.090;14.420;2024-02-04T10:59:11;99654.75;;;12.68;58.27
67740;BME280;54536;50.090;14.420;2024-02-04T11:01:41;99662.63;;;12.78;58.39
67740;BME280;54536;50.090;14.420;2024-02-04T11:04:10;99649.75;;;12.65;58.13
67740;BME280;54536;50.090;14.420;2024-02-04T11:06:40;99674.22;;;12.57;58.54
67740;BME280;54536;50.090;14.420;2024-02-04T11:09:08;99662.84;;;12.57;58.79
67740;BME280;54536;50.090;14.420;2024-02-04T11:11:36;99653.66;;;12.61;58.47
67740;BME280;54536;50.090;14.420;2024-02-04T11:14:05;99634.53;;;12.49;58.66
67740;BME280;54536;50.090;14.420;2024-02-04T11:24:43;99628.59;;;12.75;57.82
67740;BME280;54536;50.090;14.420;2024-02-04T11:27:15;99622.28;;;12.58;58.00
67740;BME280;54536;50.090;14.420;2024-02-04T11:29:42;99627.53;;;12.68;57.82
67740;BME280;54536;50.090;14.420;2024-02-04T11:32:08;99617.81;;;12.68;57.67
67740;BME280;54536;50.090;14.420;2024-02-04T11:34:35;99598.09;;;12.72;57.80
67740;BME280;54536;50.090;14.420;2024-02-04T11:37:13;99600.53;;;12.83;57.57
67740;BME280;54536;50.090;14.420;2024-02-04T11:39:48;99586.31;;;12.94;57.35
67740;BME280;54536;50.090;14.420;2024-02-04T11:42:14;99595.44;;;13.00;57.14
67740;BME280;54536;50.090;14.420;2024-02-04T11:44:42;99590.16;;;13.00;57.12
67740;BME280;54536;50.090;14.420;2024-02-04T11:47:07;99594.34;;;13.02;57.03
67740;BME280;54536;50.090;14.420;2024-02-04T11:49:34;99585.00;;;13.08;56.82
67740;BME280;54536;50.090;14.420;2024-02-04T11:52:00;99595.03;;;12.95;56.57
67740;BME280;54536;50.090;14.420;2024-02-04T11:54:26;99592.81;;;13.00;56.50
67740;BME280;54536;50.090;14.420;2024-02-04T11:56:52;99586.34;;;12.84;56.71
67740;BME280;54536;50.090;14.420;2024-02-04T11:59:24;99584.84;;;13.09;56.47
67740;BME280;54536;50.090;14.420;2024-02-04T12:01:56;99583.19;;;13.08;56.44
67740;BME280;54536;50.090;14.420;2024-02-04T12:04:24;99585.88;;;12.99;56.24
67740;BME280;54536;50.090;14.420;2024-02-04T12:06:54;99577.13;;;12.98;56.30
67740;BME280;54536;50.090;14.420;2024-02-04T12:09:21;99578.50;;;13.02;56.11
67740;BME280;54536;50.090;14.420;2024-02-04T12:11:48;99574.50;;;12.98;55.76
67740;BME280;54536;50.090;14.420;2024-02-04T12:14:14;99561.53;;;13.05;55.48
67740;BME280;54536;50.090;14.420;2024-02-04T12:16:44;99553.56;;;13.15;55.71
67740;BME280;54536;50.090;14.420;2024-02-04T12:19:11;99544.53;;;13.07;54.88
67740;BME280;54536;50.090;14.420;2024-02-04T12:21:37;99545.00;;;13.03;55.08
67740;BME280;54536;50.090;14.420;2024-02-04T12:24:03;99551.56;;;12.99;55.54
67740;BME280;54536;50.090;14.420;2024-02-04T12:26:30;99557.91;;;13.06;56.01
67740;BME280;54536;50.090;14.420;2024-02-04T12:28:58;99549.63;;;13.19;54.96
67740;BME280;54536;50.090;14.420;2024-02-04T12:31:25;99533.88;;;13.27;55.00
67740;BME280;54536;50.090;14.420;2024-02-04T12:33:57;99509.00;;;13.29;55.03
67740;BME280;54536;50.090;14.420;2024-02-04T12:36:28;99529.78;;;13.15;55.15
67740;BME280;54536;50.090;14.420;2024-02-04T12:38:57;99518.56;;;13.30;54.67
67740;BME280;54536;50.090;14.420;2024-02-04T12:41:24;99530.59;;;13.25;55.33
67740;BME280;54536;50.090;14.420;2024-02-04T12:43:53;99534.63;;;13.19;54.62
67740;BME280;54536;50.090;14.420;2024-02-04T12:46:20;99524.34;;;13.16;55.43
67740;BME280;54536;50.090;14.420;2024-02-04T12:48:53;99517.78;;;13.20;55.09
67740;BME280;54536;50.090;14.420;2024-02-04T12:51:37;99528.03;;;13.05;55.37
67740;BME280;54536;50.090;14.420;2024-02-04T12:54:09;99510.97;;;13.00;54.97
67740;BME280;54536;50.090;14.420;2024-02-04T12:56:54;99503.53;;;13.13;55.07
67740;BME280;54536;50.090;14.420;2024-02-04T12:59:28;99501.56;;;13.15;54.65
67740;BME280;54536;50.090;14.420;2024-02-04T13:02:00;99494.31;;;13.17;54.49